Time;durP1;ratioP1;P1;durP2;ratioP2;P2;SDS_P1;SDS_P2;PMS_P1;PMS_P2;Temp;Humidity;BMP_temperature;BMP_pressure;BME280_temperature;BME280_humidity;BME280_pressure;Samples;Min_cycle;Max_cycle;Signal;HPM_P1;HPM_P2
2021/12/29 00:01:23;;;;;;;0.20;0.20;;;;;;;;;;5010591;28;20226;-67
2021/12/29 00:03:49;;;;;;;0.20;0.20;;;;;;;;;;5010111;28;20248;-69
2021/12/29 00:06:15;;;;;;;0.20;0.20;;;;;;;;;;5012456;28;20207;-69
2021/12/29 00:08:42;;;;;;;0.20;0.20;;;;;;;;;;5019630;28;20239;-70
2021/12/29 00:11:09;;;;;;;0.20;0.20;;;;;;;;;;5022388;28;20205;-70
2021/12/29 00:13:36;;;;;;;0.20;0.20;;;;;;;;;;5032912;28;20247;-69
2021/12/29 00:16:02;;;;;;;0.20;0.20;;;;;;;;;;5042406;28;20472;-68
2021/12/29 00:18:30;;;;;;;0.20;0.20;;;;;;;;;;5042137;28;20202;-69
2021/12/29 00:20:57;;;;;;;0.17;0.17;;;;;;;;;;5007366;28;20205;-68
2021/12/29 00:23:23;;;;;;;0.20;0.20;;;;;;;;;;5003045;28;20205;-67
2021/12/29 00:25:50;;;;;;;0.20;0.20;;;;;;;;;;5011751;28;20225;-68
2021/12/29 00:28:20;;;;;;;0.20;0.20;;;;;;;;;;5011041;28;20294;-68
2021/12/29 00:30:46;;;;;;;0.20;0.20;;;;;;;;;;5008561;28;20199;-69
2021/12/29 00:33:13;;;;;;;0.20;0.20;;;;;;;;;;5008630;28;20250;-69
2021/12/29 00:35:41;;;;;;;0.20;0.20;;;;;;;;;;5011159;28;20263;-68
2021/12/29 00:38:09;;;;;;;0.10;0.10;;;;;;;;;;5011484;28;20204;-69
2021/12/29 00:40:36;;;;;;;0.20;0.20;;;;;;;;;;5016860;28;20206;-68
2021/12/29 00:43:02;;;;;;;0.20;0.20;;;;;;;;;;5018645;28;20213;-69
2021/12/29 00:45:31;;;;;;;0.20;0.20;;;;;;;;;;5014325;28;20214;-68
2021/12/29 00:47:58;;;;;;;0.20;0.20;;;;;;;;;;5008498;28;20272;-69
2021/12/29 00:50:24;;;;;;;0.20;0.20;;;;;;;;;;5008054;28;20249;-68
2021/12/29 00:52:52;;;;;;;0.20;0.20;;;;;;;;;;5016023;28;20206;-68
2021/12/29 00:55:19;;;;;;;0.20;0.20;;;;;;;;;;5021081;28;20202;-69
2021/12/29 00:57:45;;;;;;;0.20;0.20;;;;;;;;;;5013803;28;20455;-68
2021/12/29 01:00:14;;;;;;;0.20;0.20;;;;;;;;;;5031045;28;20430;-68
2021/12/29 01:02:42;;;;;;;0.20;0.20;;;;;;;;;;5011719;28;20230;-69
2021/12/29 01:05:10;;;;;;;0.20;0.20;;;;;;;;;;5012204;28;20217;-68
2021/12/29 01:07:36;;;;;;;0.20;0.20;;;;;;;;;;5010947;28;20206;-68
2021/12/29 01:10:04;;;;;;;0.20;0.20;;;;;;;;;;5010333;28;20257;-70
2021/12/29 01:12:30;;;;;;;0.20;0.20;;;;;;;;;;5015004;28;20201;-70
2021/12/29 01:14:57;;;;;;;0.20;0.20;;;;;;;;;;5009628;28;20206;-69
2021/12/29 01:17:25;;;;;;;0.20;0.20;;;;;;;;;;5013580;28;20216;-68
2021/12/29 01:19:53;;;;;;;0.10;0.10;;;;;;;;;;5010004;28;20316;-69
2021/12/29 01:22:20;;;;;;;0.20;0.20;;;;;;;;;;5007647;28;20227;-68
2021/12/29 01:24:46;;;;;;;0.20;0.20;;;;;;;;;;5013396;28;20205;-68
2021/12/29 01:27:13;;;;;;;0.20;0.20;;;;;;;;;;5024966;28;20255;-67
2021/12/29 01:29:39;;;;;;;0.13;0.13;;;;;;;;;;5024935;28;20624;-68
2021/12/29 01:32:06;;;;;;;0.20;0.20;;;;;;;;;;5024766;28;20209;-67
2021/12/29 01:34:32;;;;;;;0.20;0.20;;;;;;;;;;5025076;28;20209;-68
2021/12/29 01:37:00;;;;;;;0.20;0.20;;;;;;;;;;5024283;28;20216;-69
2021/12/29 01:39:27;;;;;;;1.27;1.27;;;;;;;;;;5009746;28;20256;-69
2021/12/29 01:41:55;;;;;;;0.20;0.20;;;;;;;;;;5012284;28;20202;-68
2021/12/29 01:44:23;;;;;;;0.20;0.20;;;;;;;;;;5007947;28;20206;-68
2021/12/29 01:46:50;;;;;;;0.27;0.27;;;;;;;;;;5005207;28;20206;-68
2021/12/29 01:49:17;;;;;;;0.20;0.20;;;;;;;;;;5004748;28;20219;-68
2021/12/29 01:51:49;;;;;;;0.20;0.20;;;;;;;;;;5009889;28;20237;-68
2021/12/29 01:54:23;;;;;;;0.20;0.20;;;;;;;;;;5019691;28;20217;-68
2021/12/29 01:56:50;;;;;;;0.17;0.17;;;;;;;;;;5024491;28;20193;-69
2021/12/29 01:59:17;;;;;;;0.20;0.20;;;;;;;;;;5024527;28;20245;-68
2021/12/29 02:01:44;;;;;;;0.20;0.20;;;;;;;;;;5024161;28;20516;-68
2021/12/29 02:04:10;;;;;;;0.20;0.20;;;;;;;;;;5024324;28;20251;-69
2021/12/29 02:06:37;;;;;;;0.20;0.20;;;;;;;;;;5024130;28;20260;-68
2021/12/29 02:09:04;;;;;;;0.10;0.10;;;;;;;;;;5024173;28;20221;-70
2021/12/29 02:11:32;;;;;;;0.20;0.20;;;;;;;;;;5024169;28;20553;-68
2021/12/29 02:13:58;;;;;;;0.20;0.20;;;;;;;;;;5024201;28;20206;-68
2021/12/29 02:16:25;;;;;;;0.20;0.20;;;;;;;;;;5024208;28;20381;-69
2021/12/29 02:18:52;;;;;;;0.20;0.20;;;;;;;;;;5024126;28;20286;-69
2021/12/29 02:21:21;;;;;;;0.20;0.20;;;;;;;;;;5023708;28;20232;-68
2021/12/29 02:24:04;;;;;;;0.20;0.20;;;;;;;;;;5023629;28;20277;-67
2021/12/29 02:26:32;;;;;;;0.20;0.20;;;;;;;;;;5023673;28;20201;-68
2021/12/29 02:29:00;;;;;;;0.20;0.20;;;;;;;;;;5023560;28;20279;-69
2021/12/29 02:31:27;;;;;;;0.20;0.20;;;;;;;;;;5023871;28;20211;-69
2021/12/29 02:33:57;;;;;;;0.20;0.20;;;;;;;;;;5023542;28;20209;-69
2021/12/29 02:36:24;;;;;;;0.20;0.20;;;;;;;;;;5023675;28;20205;-68
2021/12/29 02:38:53;;;;;;;0.20;0.20;;;;;;;;;;5023827;28;20201;-68
2021/12/29 02:41:20;;;;;;;0.20;0.20;;;;;;;;;;5023336;28;20210;-69
2021/12/29 02:43:48;;;;;;;0.20;0.20;;;;;;;;;;5023672;28;20410;-68
2021/12/29 02:46:16;;;;;;;0.10;0.10;;;;;;;;;;5023056;28;20524;-69
2021/12/29 02:48:48;;;;;;;0.20;0.20;;;;;;;;;;5023556;28;20226;-69
2021/12/29 02:51:14;;;;;;;0.20;0.20;;;;;;;;;;5023038;28;20572;-69
2021/12/29 02:53:41;;;;;;;0.20;0.20;;;;;;;;;;5022800;28;20205;-68
2021/12/29 02:56:08;;;;;;;0.17;0.17;;;;;;;;;;5023300;28;20244;-69
2021/12/29 02:58:34;;;;;;;0.20;0.20;;;;;;;;;;5023449;28;20276;-69
2021/12/29 03:01:02;;;;;;;0.20;0.20;;;;;;;;;;5023322;28;20211;-69
2021/12/29 03:03:33;;;;;;;0.20;0.20;;;;;;;;;;5023380;28;20288;-69
2021/12/29 03:05:59;;;;;;;0.20;0.20;;;;;;;;;;5023348;28;20237;-69
2021/12/29 03:08:25;;;;;;;0.13;0.13;;;;;;;;;;5023230;28;20245;-69
2021/12/29 03:10:53;;;;;;;4.33;4.13;;;;;;;;;;5023582;28;20252;-68
2021/12/29 03:13:20;;;;;;;0.20;0.20;;;;;;;;;;5031235;28;20201;-68
2021/12/29 03:15:46;;;;;;;0.20;0.20;;;;;;;;;;5042912;28;20430;-68
2021/12/29 03:18:12;;;;;;;0.20;0.20;;;;;;;;;;5042510;28;20228;-68
2021/12/29 03:20:39;;;;;;;0.20;0.20;;;;;;;;;;5034316;28;20259;-68
2021/12/29 03:23:05;;;;;;;0.20;0.20;;;;;;;;;;5023076;28;20234;-69
2021/12/29 03:25:31;;;;;;;0.20;0.20;;;;;;;;;;5022992;28;20206;-68
2021/12/29 03:28:00;;;;;;;0.13;0.13;;;;;;;;;;5023060;28;20458;-69
2021/12/29 03:30:27;;;;;;;0.20;0.20;;;;;;;;;;5022780;28;20402;-68
2021/12/29 03:33:02;;;;;;;0.20;0.20;;;;;;;;;;5022848;28;20219;-69
2021/12/29 03:35:29;;;;;;;0.20;0.20;;;;;;;;;;5023194;28;20352;-69
2021/12/29 03:37:55;;;;;;;0.20;0.20;;;;;;;;;;5022987;28;20211;-69
2021/12/29 03:40:21;;;;;;;0.20;0.20;;;;;;;;;;5022798;28;20241;-69
2021/12/29 03:42:48;;;;;;;0.20;0.20;;;;;;;;;;5022774;28;20211;-69
2021/12/29 03:45:15;;;;;;;0.20;0.20;;;;;;;;;;5022610;28;20207;-69
2021/12/29 03:47:41;;;;;;;0.20;0.20;;;;;;;;;;5022888;28;20206;-70
2021/12/29 03:50:08;;;;;;;0.20;0.20;;;;;;;;;;5018884;28;20226;-69
2021/12/29 03:52:34;;;;;;;0.20;0.20;;;;;;;;;;5003250;28;20250;-70
2021/12/29 03:55:01;;;;;;;0.20;0.20;;;;;;;;;;5002978;28;20207;-68
2021/12/29 03:57:27;;;;;;;0.20;0.20;;;;;;;;;;5003329;28;20207;-69
2021/12/29 03:59:53;;;;;;;0.20;0.20;;;;;;;;;;5003150;28;20246;-69
2021/12/29 04:02:21;;;;;;;0.20;0.20;;;;;;;;;;5003214;28;20465;-69
2021/12/29 04:04:47;;;;;;;0.20;0.20;;;;;;;;;;5006835;28;20208;-69
2021/12/29 04:07:14;;;;;;;0.20;0.20;;;;;;;;;;5006569;28;20208;-68
2021/12/29 04:09:40;;;;;;;0.20;0.20;;;;;;;;;;5011777;28;20537;-69
2021/12/29 04:12:06;;;;;;;0.20;0.20;;;;;;;;;;5026547;28;20209;-69
2021/12/29 04:14:33;;;;;;;0.10;0.10;;;;;;;;;;5044886;28;20203;-69
2021/12/29 04:17:08;;;;;;;0.20;0.20;;;;;;;;;;5046178;28;20271;-70
2021/12/29 04:20:54;;;;;;;0.20;0.20;;;;;;;;;;5045949;28;20299;-69
2021/12/29 04:22:27;;;;;;;0.20;0.20;;;;;;;;;;5045727;28;20209;-68
2021/12/29 04:24:53;;;;;;;0.20;0.20;;;;;;;;;;5046045;28;20256;-69
2021/12/29 04:27:22;;;;;;;0.20;0.20;;;;;;;;;;5046122;28;20508;-69
2021/12/29 04:29:48;;;;;;;0.20;0.20;;;;;;;;;;5045893;28;20224;-68
2021/12/29 04:32:14;;;;;;;0.20;0.20;;;;;;;;;;5045999;28;20245;-68
2021/12/29 04:34:42;;;;;;;0.20;0.20;;;;;;;;;;5045694;28;20257;-68
2021/12/29 04:37:08;;;;;;;0.20;0.20;;;;;;;;;;5045510;28;20244;-69
2021/12/29 04:39:34;;;;;;;0.20;0.20;;;;;;;;;;5045693;28;20256;-69
2021/12/29 04:42:00;;;;;;;0.13;0.13;;;;;;;;;;5045779;28;20533;-68
2021/12/29 04:44:27;;;;;;;0.10;0.10;;;;;;;;;;5045802;28;20206;-68
2021/12/29 04:46:55;;;;;;;0.20;0.20;;;;;;;;;;5045722;28;20206;-68
2021/12/29 04:49:25;;;;;;;0.20;0.20;;;;;;;;;;5045239;28;20238;-69
2021/12/29 04:51:56;;;;;;;0.10;0.10;;;;;;;;;;5045288;28;20233;-68
2021/12/29 04:54:23;;;;;;;0.20;0.20;;;;;;;;;;5045558;28;20203;-68
2021/12/29 04:56:49;;;;;;;0.20;0.20;;;;;;;;;;5045307;28;20246;-69
2021/12/29 04:59:16;;;;;;;0.20;0.20;;;;;;;;;;5041928;28;20218;-69
2021/12/29 05:01:42;;;;;;;0.10;0.10;;;;;;;;;;5024927;28;20219;-69
2021/12/29 05:04:08;;;;;;;0.20;0.20;;;;;;;;;;5025201;28;20248;-70
2021/12/29 05:09:19;;;;;;;0.20;0.20;;;;;;;;;;5025188;28;20218;-68
2021/12/29 05:11:46;;;;;;;0.20;0.20;;;;;;;;;;5025367;28;20507;-68
2021/12/29 05:14:13;;;;;;;0.20;0.20;;;;;;;;;;5025145;28;20565;-69
2021/12/29 05:16:40;;;;;;;0.10;0.10;;;;;;;;;;5025007;28;20207;-68
2021/12/29 05:19:06;;;;;;;0.20;0.20;;;;;;;;;;5025350;28;20381;-68
2021/12/29 05:21:32;;;;;;;0.20;0.20;;;;;;;;;;5024894;28;20206;-68
2021/12/29 05:23:58;;;;;;;0.20;0.20;;;;;;;;;;5025148;28;20206;-70
2021/12/29 05:26:26;;;;;;;0.17;0.17;;;;;;;;;;5025157;28;20406;-69
2021/12/29 05:28:52;;;;;;;0.20;0.20;;;;;;;;;;5025091;28;20226;-69
2021/12/29 05:31:18;;;;;;;0.20;0.20;;;;;;;;;;5024698;28;20206;-69
2021/12/29 05:33:45;;;;;;;0.20;0.20;;;;;;;;;;5024752;28;20231;-69
2021/12/29 05:36:11;;;;;;;0.20;0.20;;;;;;;;;;5025077;28;20216;-69
2021/12/29 05:38:37;;;;;;;0.20;0.20;;;;;;;;;;5025002;28;20212;-70
2021/12/29 05:41:03;;;;;;;0.10;0.10;;;;;;;;;;5024496;28;20528;-68
2021/12/29 05:43:31;;;;;;;0.20;0.20;;;;;;;;;;5024496;28;20249;-69
2021/12/29 05:45:57;;;;;;;0.20;0.20;;;;;;;;;;5024513;28;20204;-70
2021/12/29 05:48:23;;;;;;;0.20;0.20;;;;;;;;;;5024608;28;20215;-69
2021/12/29 05:50:50;;;;;;;0.20;0.20;;;;;;;;;;5024098;28;20550;-68
2021/12/29 05:53:16;;;;;;;0.10;0.10;;;;;;;;;;5024376;28;20211;-69
2021/12/29 05:55:42;;;;;;;0.20;0.20;;;;;;;;;;5024294;28;20229;-68
2021/12/29 05:58:09;;;;;;;0.10;0.10;;;;;;;;;;5024397;28;20218;-68
2021/12/29 06:00:39;;;;;;;0.10;0.10;;;;;;;;;;5024571;28;20245;-69
2021/12/29 06:03:06;;;;;;;0.20;0.20;;;;;;;;;;5024565;28;20245;-69
2021/12/29 06:05:32;;;;;;;0.20;0.20;;;;;;;;;;5024505;28;20207;-69
2021/12/29 06:07:58;;;;;;;0.10;0.10;;;;;;;;;;5024712;28;20207;-68
2021/12/29 06:10:24;;;;;;;0.20;0.20;;;;;;;;;;5024004;28;20545;-68
2021/12/29 06:12:51;;;;;;;0.20;0.20;;;;;;;;;;5028442;28;20203;-69
2021/12/29 06:15:17;;;;;;;0.10;0.10;;;;;;;;;;5043740;28;20207;-69
2021/12/29 06:17:44;;;;;;;0.10;0.10;;;;;;;;;;5044068;28;20210;-67
2021/12/29 06:20:15;;;;;;;0.13;0.13;;;;;;;;;;5043612;28;20209;-69
2021/12/29 06:22:41;;;;;;;0.10;0.10;;;;;;;;;;5043885;28;20196;-69
2021/12/29 06:25:09;;;;;;;0.10;0.10;;;;;;;;;;5043902;28;20207;-69
2021/12/29 06:27:35;;;;;;;0.20;0.20;;;;;;;;;;5042825;28;20207;-68
2021/12/29 06:30:01;;;;;;;0.20;0.20;;;;;;;;;;5043706;28;20230;-68
2021/12/29 06:32:28;;;;;;;0.10;0.10;;;;;;;;;;5043818;28;20258;-68
2021/12/29 06:34:55;;;;;;;0.10;0.10;;;;;;;;;;5043992;28;20458;-68
2021/12/29 06:37:21;;;;;;;0.20;0.20;;;;;;;;;;5043639;28;20502;-68
2021/12/29 06:39:48;;;;;;;0.13;0.13;;;;;;;;;;5029707;28;20371;-67
2021/12/29 06:42:15;;;;;;;0.20;0.20;;;;;;;;;;5023757;28;20215;-68
2021/12/29 06:44:41;;;;;;;0.10;0.10;;;;;;;;;;5023761;28;20207;-68
2021/12/29 06:47:08;;;;;;;0.10;0.10;;;;;;;;;;5023387;28;20553;-69
2021/12/29 06:49:34;;;;;;;0.10;0.10;;;;;;;;;;5023392;28;20243;-69
2021/12/29 06:52:02;;;;;;;0.20;0.20;;;;;;;;;;5023345;28;20431;-69
2021/12/29 06:54:29;;;;;;;0.20;0.20;;;;;;;;;;5023651;28;20400;-69
2021/12/29 06:56:55;;;;;;;0.20;0.20;;;;;;;;;;5023313;28;20207;-69
2021/12/29 06:59:22;;;;;;;0.10;0.10;;;;;;;;;;5023277;28;20214;-69
2021/12/29 07:01:48;;;;;;;0.20;0.20;;;;;;;;;;5023476;28;20208;-69
2021/12/29 07:04:14;;;;;;;0.20;0.20;;;;;;;;;;5023257;28;20208;-68
2021/12/29 07:06:41;;;;;;;0.20;0.20;;;;;;;;;;5023429;28;20277;-68
2021/12/29 07:09:08;;;;;;;0.10;0.10;;;;;;;;;;5023162;28;20219;-67
2021/12/29 07:11:36;;;;;;;0.20;0.20;;;;;;;;;;5023431;28;20226;-68
2021/12/29 07:14:03;;;;;;;0.10;0.10;;;;;;;;;;5037362;28;20198;-68
2021/12/29 07:16:30;;;;;;;0.10;0.10;;;;;;;;;;5043023;28;20208;-69
2021/12/29 07:18:56;;;;;;;0.20;0.20;;;;;;;;;;5042741;28;20299;-69
2021/12/29 07:21:25;;;;;;;0.20;0.20;;;;;;;;;;5042756;28;20210;-69
2021/12/29 07:23:53;;;;;;;0.20;0.20;;;;;;;;;;5042981;28;20208;-69
2021/12/29 07:26:21;;;;;;;0.10;0.10;;;;;;;;;;5043474;28;20212;-69
2021/12/29 07:28:47;;;;;;;0.10;0.10;;;;;;;;;;5031697;28;20530;-68
2021/12/29 07:31:14;;;;;;;0.17;0.17;;;;;;;;;;5022876;28;20223;-68
2021/12/29 07:33:40;;;;;;;0.20;0.20;;;;;;;;;;5023300;28;20319;-69
2021/12/29 07:36:06;;;;;;;0.20;0.20;;;;;;;;;;5023268;28;20208;-69
2021/12/29 07:38:33;;;;;;;0.20;0.20;;;;;;;;;;5024793;28;20206;-68
2021/12/29 07:40:59;;;;;;;0.13;0.13;;;;;;;;;;5026878;28;20200;-69
2021/12/29 07:43:26;;;;;;;0.20;0.20;;;;;;;;;;5027617;28;20207;-68
2021/12/29 07:45:54;;;;;;;0.17;0.17;;;;;;;;;;5027131;28;20207;-68
2021/12/29 07:48:26;;;;;;;0.10;0.10;;;;;;;;;;5027069;28;20401;-69
2021/12/29 07:50:52;;;;;;;0.20;0.20;;;;;;;;;;5026528;28;20243;-69
2021/12/29 07:53:18;;;;;;;0.10;0.10;;;;;;;;;;5026711;28;20215;-68
2021/12/29 07:55:45;;;;;;;0.20;0.20;;;;;;;;;;5026807;28;20257;-69
2021/12/29 07:58:11;;;;;;;0.20;0.20;;;;;;;;;;5026903;28;20388;-69
2021/12/29 08:00:39;;;;;;;0.20;0.20;;;;;;;;;;5027226;28;20284;-69
2021/12/29 08:03:05;;;;;;;0.10;0.10;;;;;;;;;;5026408;28;20211;-69
2021/12/29 08:05:31;;;;;;;0.13;0.13;;;;;;;;;;5026587;28;20203;-70
2021/12/29 08:07:58;;;;;;;0.20;0.20;;;;;;;;;;5026502;28;20208;-69
2021/12/29 08:10:24;;;;;;;0.10;0.10;;;;;;;;;;5026187;28;20223;-68
2021/12/29 08:12:50;;;;;;;0.20;0.20;;;;;;;;;;5030679;28;20200;-68
2021/12/29 08:15:17;;;;;;;0.17;0.17;;;;;;;;;;5046216;28;20206;-69
2021/12/29 08:17:45;;;;;;;0.20;0.20;;;;;;;;;;5037202;28;20203;-68
2021/12/29 08:20:11;;;;;;;0.20;0.20;;;;;;;;;;5026132;28;20203;-69
2021/12/29 08:22:38;;;;;;;0.20;0.20;;;;;;;;;;5026398;28;20228;-70
2021/12/29 08:25:04;;;;;;;0.10;0.10;;;;;;;;;;5026330;28;20219;-69
2021/12/29 08:27:31;;;;;;;0.20;0.20;;;;;;;;;;5025941;28;20255;-69
2021/12/29 08:29:57;;;;;;;0.20;0.20;;;;;;;;;;5025836;28;20251;-69
2021/12/29 08:32:23;;;;;;;0.20;0.20;;;;;;;;;;5026183;28;20213;-69
2021/12/29 08:34:50;;;;;;;0.10;0.10;;;;;;;;;;5025795;28;20211;-69
2021/12/29 08:37:17;;;;;;;0.20;0.20;;;;;;;;;;5026054;28;20208;-71
2021/12/29 08:39:43;;;;;;;0.20;0.20;;;;;;;;;;5026086;28;20208;-69
2021/12/29 08:42:09;;;;;;;0.20;0.20;;;;;;;;;;5026004;28;20266;-69
2021/12/29 08:44:35;;;;;;;0.20;0.20;;;;;;;;;;5025938;28;20208;-69
2021/12/29 08:47:01;;;;;;;0.20;0.20;;;;;;;;;;5025830;28;20207;-69
2021/12/29 08:49:28;;;;;;;0.20;0.20;;;;;;;;;;5016359;28;20219;-69
2021/12/29 08:51:56;;;;;;;0.10;0.10;;;;;;;;;;5008583;28;20240;-69
2021/12/29 08:54:23;;;;;;;0.17;0.17;;;;;;;;;;5016495;28;20355;-69
2021/12/29 08:56:50;;;;;;;0.20;0.20;;;;;;;;;;5011503;28;20411;-68
2021/12/29 08:59:17;;;;;;;0.20;0.20;;;;;;;;;;5019352;28;20532;-69
2021/12/29 09:01:43;;;;;;;0.10;0.10;;;;;;;;;;5023799;28;20213;-69
2021/12/29 09:04:09;;;;;;;0.20;0.20;;;;;;;;;;5028471;28;20216;-69
2021/12/29 09:06:35;;;;;;;0.10;0.10;;;;;;;;;;5024221;28;20360;-68
2021/12/29 09:09:03;;;;;;;0.10;0.10;;;;;;;;;;5010234;28;20205;-69
2021/12/29 09:11:30;;;;;;;0.20;0.20;;;;;;;;;;5016327;28;20231;-69
2021/12/29 09:13:56;;;;;;;0.10;0.10;;;;;;;;;;5017437;28;20322;-68
2021/12/29 09:16:22;;;;;;;0.10;0.10;;;;;;;;;;5014426;28;20204;-68
2021/12/29 09:18:49;;;;;;;0.20;0.20;;;;;;;;;;5012218;28;20208;-69
2021/12/29 09:21:18;;;;;;;0.10;0.10;;;;;;;;;;5009400;28;20432;-67
2021/12/29 09:23:44;;;;;;;0.10;0.10;;;;;;;;;;5011234;28;20207;-67
2021/12/29 09:26:13;;;;;;;0.10;0.10;;;;;;;;;;5009245;28;20213;-71
2021/12/29 09:28:40;;;;;;;0.20;0.20;;;;;;;;;;5014943;28;20570;-72
2021/12/29 09:31:06;;;;;;;0.10;0.10;;;;;;;;;;5012931;28;20227;-69
2021/12/29 09:33:34;;;;;;;0.10;0.10;;;;;;;;;;5015188;28;20200;-68
2021/12/29 09:36:02;;;;;;;0.13;0.13;;;;;;;;;;5029435;28;20390;-70
2021/12/29 09:38:31;;;;;;;0.10;0.10;;;;;;;;;;5026467;28;20230;-69
2021/12/29 09:40:57;;;;;;;0.10;0.10;;;;;;;;;;5021564;28;20205;-70
2021/12/29 09:43:25;;;;;;;0.10;0.10;;;;;;;;;;5017675;28;20213;-68
2021/12/29 09:45:51;;;;;;;0.20;0.20;;;;;;;;;;5014216;28;21090;-70
2021/12/29 09:48:18;;;;;;;0.20;0.20;;;;;;;;;;5013147;28;20267;-70
2021/12/29 09:50:45;;;;;;;0.20;0.20;;;;;;;;;;5017622;28;20276;-70
2021/12/29 09:53:11;;;;;;;0.13;0.13;;;;;;;;;;5022091;28;20333;-71
2021/12/29 09:55:38;;;;;;;0.10;0.10;;;;;;;;;;5018625;28;20240;-70
2021/12/29 09:58:05;;;;;;;0.20;0.20;;;;;;;;;;5016847;28;20208;-71
2021/12/29 10:00:34;;;;;;;0.20;0.20;;;;;;;;;;5015023;28;20204;-72
2021/12/29 10:03:01;;;;;;;0.10;0.10;;;;;;;;;;5014574;28;20519;-71
2021/12/29 10:05:28;;;;;;;0.10;0.10;;;;;;;;;;5009972;28;20297;-71
2021/12/29 10:07:58;;;;;;;0.10;0.10;;;;;;;;;;5024356;28;20242;-70
2021/12/29 10:10:25;;;;;;;0.10;0.10;;;;;;;;;;5024032;28;20234;-70
2021/12/29 10:12:51;;;;;;;0.10;0.10;;;;;;;;;;5014861;28;20208;-72
2021/12/29 10:15:17;;;;;;;0.20;0.20;;;;;;;;;;5017977;28;20251;-72
2021/12/29 10:17:45;;;;;;;0.10;0.10;;;;;;;;;;5014984;28;20404;-72
2021/12/29 10:20:12;;;;;;;0.10;0.10;;;;;;;;;;5015884;28;20214;-70
2021/12/29 10:22:41;;;;;;;0.10;0.10;;;;;;;;;;5013517;28;20201;-72
2021/12/29 10:25:09;;;;;;;0.10;0.10;;;;;;;;;;5012349;28;20279;-72
2021/12/29 10:27:36;;;;;;;0.10;0.10;;;;;;;;;;5012679;28;20251;-71
2021/12/29 10:30:04;;;;;;;0.20;0.20;;;;;;;;;;5015639;28;20209;-70
2021/12/29 10:32:30;;;;;;;0.10;0.10;;;;;;;;;;5013114;28;20228;-71
2021/12/29 10:34:58;;;;;;;0.10;0.10;;;;;;;;;;5019130;28;20209;-70
2021/12/29 10:37:24;;;;;;;0.10;0.10;;;;;;;;;;5012236;28;20260;-72
2021/12/29 10:39:51;;;;;;;0.20;0.20;;;;;;;;;;5015515;28;20269;-73
2021/12/29 10:42:19;;;;;;;0.20;0.20;;;;;;;;;;5011575;28;20205;-72
2021/12/29 10:44:47;;;;;;;0.10;0.10;;;;;;;;;;5022602;28;20223;-72
2021/12/29 10:47:14;;;;;;;0.10;0.10;;;;;;;;;;5023667;28;20555;-70
2021/12/29 10:49:50;;;;;;;0.10;0.10;;;;;;;;;;5023140;28;20205;-71
2021/12/29 10:52:27;;;;;;;0.10;0.10;;;;;;;;;;5023269;28;20231;-70
2021/12/29 10:54:54;;;;;;;0.10;0.10;;;;;;;;;;5023816;28;20236;-70
2021/12/29 10:57:20;;;;;;;0.10;0.10;;;;;;;;;;5023700;28;20566;-70
2021/12/29 10:59:46;;;;;;;0.10;0.10;;;;;;;;;;5023399;28;20227;-72
2021/12/29 11:02:23;;;;;;;0.10;0.10;;;;;;;;;;5008719;28;20259;-68
2021/12/29 11:04:54;;;;;;;0.10;0.10;;;;;;;;;;5003889;28;20201;-69
2021/12/29 11:07:25;;;;;;;0.10;0.10;;;;;;;;;;5011675;28;20198;-68
2021/12/29 11:09:52;;;;;;;0.20;0.20;;;;;;;;;;5016585;28;20428;-68
2021/12/29 11:12:20;;;;;;;0.10;0.10;;;;;;;;;;5005072;28;20252;-69
2021/12/29 11:14:52;;;;;;;0.10;0.10;;;;;;;;;;5043057;28;20207;-69
2021/12/29 11:17:21;;;;;;;0.10;0.10;;;;;;;;;;5031524;28;20220;-69
2021/12/29 11:19:50;;;;;;;0.20;0.20;;;;;;;;;;5022732;28;20247;-69
2021/12/29 11:22:17;;;;;;;0.10;0.10;;;;;;;;;;5023156;28;20243;-70
2021/12/29 11:24:45;;;;;;;0.10;0.10;;;;;;;;;;5022882;28;20515;-69
2021/12/29 11:27:12;;;;;;;0.10;0.10;;;;;;;;;;5022879;28;20270;-70
2021/12/29 11:29:48;;;;;;;0.10;0.10;;;;;;;;;;5022904;28;20204;-67
2021/12/29 11:32:19;;;;;;;0.10;0.10;;;;;;;;;;5022889;28;20217;-69
2021/12/29 11:34:45;;;;;;;0.20;0.20;;;;;;;;;;5022879;28;20216;-69
2021/12/29 11:37:14;;;;;;;0.10;0.10;;;;;;;;;;5023167;28;20402;-69
2021/12/29 11:39:41;;;;;;;0.17;0.17;;;;;;;;;;5022854;28;20216;-69
2021/12/29 11:42:09;;;;;;;0.10;0.10;;;;;;;;;;5022907;28;20259;-69
2021/12/29 11:44:35;;;;;;;0.20;0.20;;;;;;;;;;5022707;28;20208;-69
2021/12/29 11:47:02;;;;;;;0.20;0.20;;;;;;;;;;5023171;28;20208;-70
2021/12/29 11:49:29;;;;;;;0.10;0.10;;;;;;;;;;5023118;28;20208;-69
2021/12/29 11:51:57;;;;;;;0.10;0.10;;;;;;;;;;5022610;28;20316;-69
2021/12/29 11:54:28;;;;;;;0.10;0.10;;;;;;;;;;5022878;28;20263;-69
2021/12/29 11:56:54;;;;;;;0.20;0.20;;;;;;;;;;5022926;28;20273;-69
2021/12/29 11:59:30;;;;;;;0.10;0.10;;;;;;;;;;5022954;28;20259;-69
2021/12/29 12:02:00;;;;;;;0.10;0.10;;;;;;;;;;5023081;28;20192;-70
2021/12/29 12:04:26;;;;;;;0.10;0.10;;;;;;;;;;5022933;28;20193;-70
2021/12/29 12:07:00;;;;;;;0.10;0.10;;;;;;;;;;5022607;28;20212;-70
2021/12/29 12:09:26;;;;;;;0.10;0.10;;;;;;;;;;5022850;28;20202;-70
2021/12/29 12:11:54;;;;;;;0.10;0.10;;;;;;;;;;5022532;28;20228;-69
2021/12/29 12:14:21;;;;;;;0.10;0.10;;;;;;;;;;5026967;28;20209;-70
2021/12/29 12:16:49;;;;;;;0.10;0.10;;;;;;;;;;5011425;28;20205;-71
2021/12/29 12:19:19;;;;;;;0.10;0.10;;;;;;;;;;5005130;28;20207;-70
2021/12/29 12:21:45;;;;;;;0.10;0.10;;;;;;;;;;5002866;28;20273;-70
2021/12/29 12:24:14;;;;;;;0.10;0.10;;;;;;;;;;5003907;28;20209;-69
2021/12/29 12:26:50;;;;;;;0.10;0.10;;;;;;;;;;5006217;28;20296;-69
2021/12/29 12:29:17;;;;;;;0.10;0.10;;;;;;;;;;5017462;28;20201;-69
2021/12/29 12:31:48;;;;;;;0.20;0.20;;;;;;;;;;5026250;28;20527;-69
2021/12/29 12:34:15;;;;;;;0.20;0.20;;;;;;;;;;5022282;28;20200;-68
2021/12/29 12:36:42;;;;;;;0.10;0.10;;;;;;;;;;5009283;28;20210;-70
2021/12/29 12:39:10;;;;;;;0.10;0.10;;;;;;;;;;5006634;28;20256;-69
2021/12/29 12:41:39;;;;;;;0.10;0.10;;;;;;;;;;5014359;28;20259;-67
2021/12/29 12:44:05;;;;;;;0.10;0.10;;;;;;;;;;5019511;28;20512;-68
2021/12/29 12:46:32;;;;;;;0.10;0.10;;;;;;;;;;5010951;28;20209;-68
2021/12/29 12:48:59;;;;;;;0.10;0.10;;;;;;;;;;5005946;28;20217;-68
2021/12/29 12:51:29;;;;;;;0.20;0.20;;;;;;;;;;5006101;28;20291;-69
2021/12/29 12:53:55;;;;;;;0.10;0.10;;;;;;;;;;5006005;28;20206;-68
2021/12/29 12:56:23;;;;;;;0.10;0.10;;;;;;;;;;5005671;28;20293;-68
2021/12/29 12:58:51;;;;;;;0.10;0.10;;;;;;;;;;5011060;28;20280;-67
2021/12/29 13:01:18;;;;;;;0.10;0.10;;;;;;;;;;5025898;28;20235;-67
2021/12/29 13:03:44;;;;;;;0.10;0.10;;;;;;;;;;5025464;28;20212;-67
2021/12/29 13:06:12;;;;;;;0.13;0.13;;;;;;;;;;5025736;28;20213;-67
2021/12/29 13:08:41;;;;;;;0.20;0.20;;;;;;;;;;5022966;28;20218;-67
2021/12/29 13:11:09;;;;;;;0.13;0.13;;;;;;;;;;5025166;28;20212;-68
2021/12/29 13:13:36;;;;;;;0.10;0.10;;;;;;;;;;5025350;28;20252;-68
2021/12/29 13:16:04;;;;;;;0.20;0.20;;;;;;;;;;5025343;28;20212;-69
2021/12/29 13:18:30;;;;;;;0.10;0.10;;;;;;;;;;5025371;28;20208;-68
2021/12/29 13:20:58;;;;;;;0.10;0.10;;;;;;;;;;5025533;28;20200;-69
2021/12/29 13:23:24;;;;;;;0.10;0.10;;;;;;;;;;5025220;28;20201;-69
2021/12/29 13:25:53;;;;;;;0.17;0.17;;;;;;;;;;5024966;28;20212;-69
2021/12/29 13:28:20;;;;;;;0.17;0.17;;;;;;;;;;5022020;28;20210;-69
2021/12/29 13:30:49;;;;;;;0.20;0.20;;;;;;;;;;5015855;28;20209;-70
2021/12/29 13:33:18;;;;;;;0.13;0.13;;;;;;;;;;5010335;28;20244;-70
2021/12/29 13:35:46;;;;;;;0.20;0.20;;;;;;;;;;5012793;28;20209;-69
2021/12/29 13:38:16;;;;;;;0.17;0.17;;;;;;;;;;5014418;28;20496;-69
2021/12/29 13:40:44;;;;;;;0.20;0.20;;;;;;;;;;5017913;28;20201;-68
2021/12/29 13:43:13;;;;;;;0.10;0.10;;;;;;;;;;5017180;28;20205;-67
2021/12/29 13:45:40;;;;;;;0.10;0.10;;;;;;;;;;5005313;28;20209;-67
2021/12/29 13:48:06;;;;;;;0.20;0.20;;;;;;;;;;5013863;28;20396;-67
2021/12/29 13:50:33;;;;;;;0.10;0.10;;;;;;;;;;5024416;28;20237;-69
2021/12/29 13:53:01;;;;;;;0.17;0.17;;;;;;;;;;5024663;28;20275;-68
2021/12/29 13:55:29;;;;;;;0.10;0.10;;;;;;;;;;5024621;28;20206;-67
2021/12/29 13:57:55;;;;;;;0.10;0.10;;;;;;;;;;5024699;28;20231;-67
2021/12/29 14:00:23;;;;;;;0.20;0.20;;;;;;;;;;5024637;28;20254;-67
2021/12/29 14:02:49;;;;;;;0.10;0.10;;;;;;;;;;5023580;28;20203;-68
2021/12/29 14:05:15;;;;;;;0.20;0.20;;;;;;;;;;5024115;28;20208;-69
2021/12/29 14:07:42;;;;;;;0.10;0.10;;;;;;;;;;5024410;28;20284;-69
2021/12/29 14:10:08;;;;;;;0.10;0.10;;;;;;;;;;5024068;28;20211;-71
2021/12/29 14:12:36;;;;;;;0.17;0.17;;;;;;;;;;5026385;28;20224;-67
2021/12/29 14:15:04;;;;;;;0.17;0.17;;;;;;;;;;5035605;28;20217;-70
2021/12/29 14:17:38;;;;;;;0.10;0.10;;;;;;;;;;5014501;28;20247;-69
2021/12/29 14:20:05;;;;;;;1.23;1.23;;;;;;;;;;5009504;28;20204;-69
2021/12/29 14:22:31;;;;;;;0.10;0.10;;;;;;;;;;5005513;28;20197;-68
2021/12/29 14:25:05;;;;;;;3.80;1.33;;;;;;;;;;5010777;28;20281;-68
2021/12/29 14:27:33;;;;;;;0.10;0.10;;;;;;;;;;5005385;28;20201;-68
2021/12/29 14:29:59;;;;;;;0.10;0.10;;;;;;;;;;5016489;28;20209;-68
2021/12/29 14:32:26;;;;;;;0.10;0.10;;;;;;;;;;5021067;28;20228;-72
2021/12/29 14:34:55;;;;;;;0.10;0.10;;;;;;;;;;5023746;28;20207;-68
2021/12/29 14:37:23;;;;;;;0.10;0.10;;;;;;;;;;5022643;28;20271;-68
2021/12/29 14:39:50;;;;;;;0.10;0.10;;;;;;;;;;5023821;28;20223;-69
2021/12/29 14:42:17;;;;;;;0.10;0.10;;;;;;;;;;5024074;28;20378;-69
2021/12/29 14:44:53;;;;;;;0.10;0.10;;;;;;;;;;5023453;28;20216;-69
2021/12/29 14:47:20;;;;;;;0.67;0.67;;;;;;;;;;5023020;28;20247;-69